createdAt,value
2022-07-31T00:02:13.026Z,16.81
2022-07-31T00:04:34.888Z,16.77
2022-07-31T00:06:56.390Z,16.78
2022-07-31T00:09:52.541Z,16.76
2022-07-31T00:11:59.406Z,16.74
2022-07-31T00:14:20.950Z,16.77
2022-07-31T00:16:42.456Z,16.77
2022-07-31T00:19:04.022Z,16.71
2022-07-31T00:21:25.469Z,16.66
2022-07-31T00:23:46.957Z,16.65
2022-07-31T00:26:08.663Z,16.62
2022-07-31T00:28:30.140Z,16.65
2022-07-31T00:30:51.688Z,16.61
2022-07-31T00:33:13.150Z,16.61
2022-07-31T00:35:34.589Z,16.62
2022-07-31T00:38:24.715Z,16.58
2022-07-31T00:40:46.228Z,16.61
2022-07-31T00:43:07.744Z,16.61
2022-07-31T00:45:31.705Z,16.57
2022-07-31T00:47:55.959Z,16.48
2022-07-31T00:50:17.518Z,16.38
2022-07-31T00:52:39.074Z,16.34
2022-07-31T00:55:00.576Z,16.36
2022-07-31T00:57:22.162Z,16.33
2022-07-31T00:59:43.921Z,16.34
2022-07-31T01:02:05.447Z,16.36
2022-07-31T01:04:27.281Z,16.39
2022-07-31T01:06:48.911Z,16.46
2022-07-31T01:09:10.566Z,16.43
2022-07-31T01:12:02.766Z,16.34
2022-07-31T01:14:27.829Z,16.30
2022-07-31T01:16:53.296Z,16.24
2022-07-31T01:19:43.133Z,16.16
2022-07-31T01:22:39.777Z,16.20
2022-07-31T01:25:20.843Z,16.21
2022-07-31T01:28:06.551Z,16.23
2022-07-31T01:30:35.387Z,16.32
2022-07-31T01:33:00.979Z,16.31
2022-07-31T01:35:33.069Z,16.28
2022-07-31T01:37:58.603Z,16.28
2022-07-31T01:40:28.014Z,16.27
2022-07-31T01:43:02.982Z,16.19
2022-07-31T01:45:26.517Z,16.19
2022-07-31T01:47:49.601Z,16.16
2022-07-31T01:50:42.195Z,16.16
2022-07-31T01:52:57.455Z,16.18
2022-07-31T01:55:19.675Z,16.23
2022-07-31T01:57:42.617Z,16.33
2022-07-31T02:00:33.627Z,16.38
2022-07-31T02:02:51.238Z,16.38
2022-07-31T02:05:18.319Z,16.34
2022-07-31T02:07:45.097Z,16.32
2022-07-31T02:10:10.027Z,16.34
2022-07-31T02:12:34.079Z,16.35
2022-07-31T02:14:56.867Z,16.40
2022-07-31T02:17:22.608Z,16.44
2022-07-31T02:20:00.297Z,16.47
2022-07-31T02:22:22.089Z,16.54
2022-07-31T02:24:46.902Z,16.60
2022-07-31T02:27:57.578Z,16.65
2022-07-31T02:29:56.598Z,16.67
2022-07-31T02:32:18.216Z,16.67
2022-07-31T02:34:40.574Z,16.78
2022-07-31T02:37:04.212Z,16.76
2022-07-31T02:39:30.435Z,16.78
2022-07-31T02:41:54.159Z,16.75
2022-07-31T02:44:15.882Z,16.69
2022-07-31T02:46:48.994Z,16.70
2022-07-31T02:49:14.034Z,16.80
2022-07-31T02:51:42.638Z,16.77
2022-07-31T02:54:04.601Z,16.75
2022-07-31T02:56:26.183Z,16.79
2022-07-31T02:58:49.579Z,16.80
2022-07-31T03:01:11.113Z,16.87
2022-07-31T03:03:32.718Z,16.98
2022-07-31T03:05:54.259Z,16.90
2022-07-31T03:08:15.727Z,16.81
2022-07-31T03:10:37.211Z,16.66
2022-07-31T03:13:00.738Z,16.64
2022-07-31T03:15:25.542Z,16.68
2022-07-31T03:17:48.107Z,16.72
2022-07-31T03:20:11.010Z,16.72
2022-07-31T03:22:33.414Z,16.77
2022-07-31T03:24:56.135Z,16.77
2022-07-31T03:27:19.307Z,16.81
2022-07-31T03:29:43.195Z,16.87
2022-07-31T03:32:06.513Z,16.89
2022-07-31T03:34:28.286Z,16.88
2022-07-31T03:36:49.825Z,16.90
2022-07-31T03:39:11.328Z,16.94
2022-07-31T03:41:33.873Z,16.96
2022-07-31T03:43:55.476Z,16.94
2022-07-31T03:46:19.813Z,16.97
2022-07-31T03:48:41.368Z,17.00
2022-07-31T03:51:03.100Z,17.06
2022-07-31T03:53:25.293Z,17.08
2022-07-31T03:55:46.930Z,17.06
2022-07-31T03:58:08.974Z,17.00
2022-07-31T04:00:31.242Z,16.98
2022-07-31T04:02:57.710Z,17.04
2022-07-31T04:05:19.251Z,17.12
2022-07-31T04:07:40.756Z,17.10
2022-07-31T04:10:02.887Z,17.08
2022-07-31T04:12:24.427Z,17.14
2022-07-31T04:14:46.375Z,17.26
2022-07-31T04:17:07.926Z,17.23
2022-07-31T04:19:32.601Z,17.22
2022-07-31T04:21:54.092Z,17.20
2022-07-31T04:24:17.796Z,17.22
2022-07-31T04:26:39.341Z,17.23
2022-07-31T04:29:01.114Z,17.30
2022-07-31T04:31:22.618Z,17.37
2022-07-31T04:33:47.296Z,17.45
2022-07-31T04:36:29.197Z,17.58
2022-07-31T04:38:52.165Z,17.62
2022-07-31T04:41:13.611Z,17.67
2022-07-31T04:43:35.078Z,17.72
2022-07-31T04:45:56.535Z,17.71
2022-07-31T04:48:17.992Z,17.70
2022-07-31T04:50:39.498Z,17.79
2022-07-31T04:53:00.984Z,17.80
2022-07-31T04:55:22.849Z,17.75
2022-07-31T04:57:44.332Z,17.78
2022-07-31T05:00:06.832Z,17.83
2022-07-31T05:02:28.688Z,17.82
2022-07-31T05:04:52.605Z,17.87
2022-07-31T05:07:18.272Z,17.90
2022-07-31T05:09:39.782Z,17.93
2022-07-31T05:12:02.130Z,17.88
2022-07-31T05:14:23.866Z,17.85
2022-07-31T05:16:45.743Z,17.84
2022-07-31T05:19:14.312Z,17.79
2022-07-31T05:21:46.019Z,17.85
2022-07-31T05:24:15.007Z,17.89
2022-07-31T05:26:39.108Z,17.91
2022-07-31T05:29:00.960Z,17.96
2022-07-31T05:31:22.928Z,18.02
2022-07-31T05:33:46.542Z,18.06
2022-07-31T05:36:08.182Z,18.12
2022-07-31T05:38:29.837Z,18.18
2022-07-31T05:40:51.281Z,18.24
2022-07-31T05:43:12.774Z,18.28
2022-07-31T05:45:34.330Z,18.29
2022-07-31T05:47:55.790Z,18.33
2022-07-31T05:50:17.870Z,18.32
2022-07-31T05:52:39.342Z,18.35
2022-07-31T05:55:00.786Z,18.36
2022-07-31T05:57:33.417Z,18.36
2022-07-31T05:59:55.703Z,18.40
2022-07-31T06:02:17.175Z,18.45
2022-07-31T06:04:38.625Z,18.50
2022-07-31T06:07:00.159Z,18.53
2022-07-31T06:09:21.638Z,18.59
2022-07-31T06:11:43.168Z,18.66
2022-07-31T06:14:04.625Z,18.70
2022-07-31T06:16:26.157Z,18.74
2022-07-31T06:18:47.611Z,18.82
2022-07-31T06:21:09.737Z,18.89
2022-07-31T06:23:32.099Z,18.95
2022-07-31T06:25:54.068Z,19.04
2022-07-31T06:28:15.807Z,19.13
2022-07-31T06:30:39.654Z,19.25
2022-07-31T06:33:01.106Z,19.34
2022-07-31T06:35:30.190Z,19.46
2022-07-31T06:37:51.665Z,19.56
2022-07-31T06:40:13.540Z,19.72
2022-07-31T06:42:34.998Z,19.98
2022-07-31T06:44:56.460Z,20.26
2022-07-31T06:47:19.547Z,20.57
2022-07-31T06:49:41.172Z,21.03
2022-07-31T06:52:04.901Z,21.27
2022-07-31T06:54:27.292Z,21.40
2022-07-31T06:56:49.360Z,21.69
2022-07-31T06:59:11.273Z,21.74
2022-07-31T07:01:33.546Z,21.98
2022-07-31T07:03:55.705Z,22.11
2022-07-31T07:06:17.753Z,22.21
2022-07-31T07:08:39.219Z,22.42
2022-07-31T07:11:00.724Z,22.55
2022-07-31T07:13:23.592Z,22.87
2022-07-31T07:15:45.260Z,22.99
2022-07-31T07:18:07.081Z,23.09
2022-07-31T07:20:28.604Z,23.31
2022-07-31T07:22:50.050Z,23.56
2022-07-31T07:25:12.657Z,23.77
2022-07-31T07:27:34.204Z,23.82
2022-07-31T07:29:56.179Z,23.88
2022-07-31T07:32:17.735Z,24.05
2022-07-31T07:34:39.448Z,24.18
2022-07-31T07:37:01.000Z,24.27
2022-07-31T07:39:23.016Z,24.49
2022-07-31T07:41:45.310Z,24.54
2022-07-31T07:44:07.376Z,24.66
2022-07-31T07:46:28.914Z,24.76
2022-07-31T07:48:51.095Z,24.78
2022-07-31T07:51:12.760Z,24.84
2022-07-31T07:53:35.003Z,25.03
2022-07-31T07:55:56.581Z,25.14
2022-07-31T07:58:18.122Z,25.22
2022-07-31T08:00:40.754Z,25.57
2022-07-31T08:03:02.804Z,25.72
2022-07-31T08:05:43.807Z,25.81
2022-07-31T08:08:05.295Z,26.01
2022-07-31T08:10:26.841Z,26.26
2022-07-31T08:12:48.311Z,26.39
2022-07-31T08:15:09.875Z,26.50
2022-07-31T08:17:31.350Z,26.60
2022-07-31T08:19:52.834Z,26.71
2022-07-31T08:22:14.373Z,26.92
2022-07-31T08:24:35.907Z,26.94
2022-07-31T08:27:16.238Z,26.96
2022-07-31T08:29:37.690Z,27.36
2022-07-31T08:31:59.492Z,27.35
2022-07-31T08:34:30.920Z,27.24
2022-07-31T08:36:53.556Z,27.41
2022-07-31T08:39:17.613Z,27.42
2022-07-31T08:41:42.929Z,27.27
2022-07-31T08:44:07.977Z,27.31
2022-07-31T08:46:31.762Z,27.42
2022-07-31T08:48:57.013Z,27.52
2022-07-31T08:51:18.979Z,27.68
2022-07-31T08:53:43.013Z,27.53
2022-07-31T08:56:06.112Z,27.34
2022-07-31T08:58:27.818Z,27.59
2022-07-31T09:00:49.428Z,27.87
2022-07-31T09:03:11.207Z,27.88
2022-07-31T09:05:42.424Z,27.87
2022-07-31T09:08:08.399Z,28.16
2022-07-31T09:10:36.139Z,28.33
2022-07-31T09:12:57.640Z,28.14
2022-07-31T09:15:24.777Z,28.07
2022-07-31T09:17:53.987Z,28.27
2022-07-31T09:20:22.293Z,28.26
2022-07-31T09:22:43.777Z,28.17
2022-07-31T09:25:12.199Z,28.27
2022-07-31T09:27:33.862Z,28.05
2022-07-31T09:29:56.434Z,28.02
2022-07-31T09:32:19.983Z,27.94
2022-07-31T09:34:42.685Z,28.03
2022-07-31T09:37:10.697Z,28.16
2022-07-31T09:39:32.261Z,28.28
2022-07-31T09:42:01.970Z,28.53
2022-07-31T09:44:43.474Z,28.76
2022-07-31T09:47:05.487Z,28.66
2022-07-31T09:49:31.897Z,28.62
2022-07-31T09:51:53.460Z,28.94
2022-07-31T09:54:26.102Z,28.93
2022-07-31T09:56:49.788Z,29.12
2022-07-31T09:59:11.609Z,29.29
2022-07-31T10:01:36.396Z,29.60
2022-07-31T10:04:01.469Z,29.72
2022-07-31T10:06:25.425Z,29.96
2022-07-31T10:08:49.403Z,30.10
2022-07-31T10:11:16.571Z,30.22
2022-07-31T10:13:44.177Z,30.37
2022-07-31T10:16:07.128Z,30.29
2022-07-31T10:18:35.612Z,30.34
2022-07-31T10:21:00.015Z,30.18
2022-07-31T10:23:27.182Z,30.07
2022-07-31T10:25:53.832Z,29.92
2022-07-31T10:28:16.938Z,29.93
2022-07-31T10:30:39.100Z,29.94
2022-07-31T10:33:03.480Z,29.95
2022-07-31T10:35:55.678Z,30.03
2022-07-31T10:39:02.393Z,30.13
2022-07-31T10:41:37.983Z,30.27
2022-07-31T10:44:03.499Z,30.75
2022-07-31T10:46:32.662Z,30.94
2022-07-31T10:48:54.642Z,31.01
2022-07-31T10:51:16.168Z,30.98
2022-07-31T10:53:51.061Z,30.94
2022-07-31T10:56:16.881Z,30.97
2022-07-31T10:58:52.583Z,30.74
2022-07-31T11:01:17.560Z,30.76
2022-07-31T11:03:46.783Z,30.80
2022-07-31T11:06:10.632Z,30.85
2022-07-31T11:08:54.845Z,30.86
2022-07-31T11:11:16.322Z,31.23
2022-07-31T11:13:56.695Z,31.49
2022-07-31T11:16:19.591Z,31.45
2022-07-31T11:18:41.097Z,31.39
2022-07-31T11:21:17.838Z,31.20
2022-07-31T11:23:55.903Z,31.06
2022-07-31T11:26:33.562Z,30.87
2022-07-31T11:30:00.381Z,30.64
2022-07-31T11:31:44.918Z,30.32
2022-07-31T11:34:06.421Z,30.19
2022-07-31T11:36:29.854Z,30.20
2022-07-31T11:38:54.039Z,30.15
2022-07-31T11:41:16.305Z,30.15
2022-07-31T11:43:42.839Z,30.09
2022-07-31T11:46:05.333Z,30.04
2022-07-31T11:48:35.999Z,30.07
2022-07-31T11:51:01.356Z,30.34
2022-07-31T11:53:23.018Z,30.89
2022-07-31T11:55:51.776Z,30.96
2022-07-31T11:58:15.505Z,31.12
2022-07-31T12:00:37.055Z,31.27
2022-07-31T12:02:58.744Z,31.33
2022-07-31T12:05:20.338Z,31.47
2022-07-31T12:08:00.027Z,31.35
2022-07-31T12:10:23.375Z,31.08
2022-07-31T12:12:44.866Z,31.31
2022-07-31T12:15:18.571Z,31.25
2022-07-31T12:17:40.185Z,30.96
2022-07-31T12:20:09.639Z,30.60
2022-07-31T12:22:31.117Z,30.30
2022-07-31T12:25:00.889Z,30.06
2022-07-31T12:27:22.422Z,29.83
2022-07-31T12:29:44.724Z,29.75
2022-07-31T12:32:07.328Z,29.49
2022-07-31T12:34:38.359Z,29.54
2022-07-31T12:37:08.851Z,29.47
2022-07-31T12:39:50.795Z,29.45
2022-07-31T12:42:35.292Z,29.34
2022-07-31T12:45:17.915Z,29.24
2022-07-31T12:47:40.950Z,29.12
2022-07-31T12:50:03.442Z,29.30
2022-07-31T12:52:28.056Z,29.45
2022-07-31T12:54:50.272Z,29.48
2022-07-31T12:57:12.075Z,29.66
2022-07-31T12:59:33.650Z,29.74
2022-07-31T13:01:55.230Z,29.99
2022-07-31T13:04:19.283Z,30.02
2022-07-31T13:06:41.210Z,30.18
2022-07-31T13:09:03.141Z,30.38
2022-07-31T13:11:30.463Z,30.59
2022-07-31T13:14:08.537Z,30.64
2022-07-31T13:16:30.361Z,30.88
2022-07-31T13:18:51.878Z,31.03
2022-07-31T13:21:13.382Z,30.97
2022-07-31T13:23:34.930Z,31.17
2022-07-31T13:25:57.258Z,31.14
2022-07-31T13:28:18.727Z,31.10
2022-07-31T13:30:40.215Z,31.20
2022-07-31T13:33:01.724Z,31.16
2022-07-31T13:35:28.530Z,31.07
2022-07-31T13:37:50.435Z,30.94
2022-07-31T13:40:11.988Z,30.69
2022-07-31T13:42:33.495Z,30.55
2022-07-31T13:44:59.589Z,30.61
2022-07-31T13:47:21.245Z,30.51
2022-07-31T13:49:42.902Z,30.41
2022-07-31T13:52:05.053Z,30.53
2022-07-31T13:54:30.147Z,30.53
2022-07-31T13:56:51.746Z,30.48
2022-07-31T13:59:13.923Z,30.70
2022-07-31T14:02:02.244Z,31.43
2022-07-31T14:04:23.577Z,32.14
2022-07-31T14:06:45.648Z,32.34
2022-07-31T14:09:07.802Z,33.07
2022-07-31T14:11:29.287Z,33.42
2022-07-31T14:13:50.841Z,33.72
2022-07-31T14:16:12.342Z,34.37
2022-07-31T14:18:33.899Z,34.33
2022-07-31T14:20:55.402Z,34.32
2022-07-31T14:23:16.981Z,34.48
2022-07-31T14:25:40.307Z,34.75
2022-07-31T14:28:01.803Z,34.69
2022-07-31T14:30:24.495Z,34.59
2022-07-31T14:32:48.420Z,34.71
2022-07-31T14:35:10.161Z,34.90
2022-07-31T14:37:31.697Z,35.30
2022-07-31T14:39:53.205Z,35.34
2022-07-31T14:42:14.996Z,35.73
2022-07-31T14:44:44.593Z,35.84
2022-07-31T14:47:06.444Z,35.45
2022-07-31T14:50:06.691Z,35.19
2022-07-31T14:52:09.741Z,34.85
2022-07-31T14:54:31.317Z,34.66
2022-07-31T14:57:01.248Z,34.74
2022-07-31T14:59:22.981Z,34.80
2022-07-31T15:01:44.661Z,34.80
2022-07-31T15:04:06.685Z,34.73
2022-07-31T15:06:39.985Z,34.41
2022-07-31T15:09:09.723Z,33.96
2022-07-31T15:11:58.276Z,33.74
2022-07-31T15:14:12.823Z,33.29
2022-07-31T15:16:34.473Z,33.14
2022-07-31T15:18:56.517Z,32.72
2022-07-31T15:21:17.996Z,32.39
2022-07-31T15:23:39.501Z,32.14
2022-07-31T15:26:00.974Z,31.93
2022-07-31T15:28:22.567Z,31.77
2022-07-31T15:30:44.062Z,31.58
2022-07-31T15:33:05.552Z,31.45
2022-07-31T15:35:27.171Z,31.34
2022-07-31T15:37:49.646Z,31.13
2022-07-31T15:40:14.131Z,31.01
2022-07-31T15:42:38.461Z,30.83
2022-07-31T15:45:00.420Z,30.86
2022-07-31T15:47:21.950Z,30.87
2022-07-31T15:49:44.347Z,31.07
2022-07-31T15:52:06.220Z,31.07
2022-07-31T15:54:40.658Z,31.15
2022-07-31T15:57:02.339Z,31.44
2022-07-31T15:59:24.955Z,31.52
2022-07-31T16:01:46.424Z,31.51
2022-07-31T16:04:16.664Z,31.37
2022-07-31T16:06:38.520Z,31.14
2022-07-31T16:09:01.691Z,31.08
2022-07-31T16:11:23.264Z,30.95
2022-07-31T16:13:44.775Z,30.87
2022-07-31T16:16:06.569Z,30.73
2022-07-31T16:18:28.088Z,30.50
2022-07-31T16:20:49.968Z,30.28
2022-07-31T16:23:11.533Z,30.17
2022-07-31T16:25:34.611Z,30.11
2022-07-31T16:27:56.798Z,29.91
2022-07-31T16:30:18.519Z,29.74
2022-07-31T16:32:40.111Z,29.76
2022-07-31T16:35:01.894Z,29.61
2022-07-31T16:37:50.487Z,29.79
2022-07-31T16:40:07.329Z,29.91
2022-07-31T16:42:29.529Z,29.87
2022-07-31T16:44:54.387Z,30.10
2022-07-31T16:47:16.127Z,30.24
2022-07-31T16:49:57.626Z,30.36
2022-07-31T16:52:19.470Z,31.00
2022-07-31T16:54:41.742Z,31.69
2022-07-31T16:57:03.653Z,32.18
2022-07-31T16:59:25.448Z,32.81
2022-07-31T17:01:58.616Z,33.36
2022-07-31T17:04:21.795Z,33.68
2022-07-31T17:06:43.691Z,33.64
2022-07-31T17:09:17.172Z,33.71
2022-07-31T17:11:39.795Z,33.05
2022-07-31T17:14:02.642Z,32.73
2022-07-31T17:16:24.151Z,32.60
2022-07-31T17:18:52.552Z,32.96
2022-07-31T17:21:16.170Z,32.62
2022-07-31T17:23:43.866Z,32.23
2022-07-31T17:26:06.165Z,32.19
2022-07-31T17:28:27.638Z,31.85
2022-07-31T17:30:49.230Z,31.52
2022-07-31T17:33:12.197Z,31.26
2022-07-31T17:35:34.351Z,30.91
2022-07-31T17:37:55.839Z,30.59
2022-07-31T17:40:41.876Z,30.27
2022-07-31T17:42:58.758Z,30.07
2022-07-31T17:45:22.019Z,29.84
2022-07-31T17:47:43.717Z,29.65
2022-07-31T17:50:05.508Z,29.51
2022-07-31T17:52:26.981Z,29.44
2022-07-31T17:54:48.755Z,29.44
2022-07-31T17:57:10.374Z,29.56
2022-07-31T17:59:32.155Z,29.37
2022-07-31T18:01:59.671Z,29.32
2022-07-31T18:04:21.475Z,29.27
2022-07-31T18:06:43.320Z,29.09
2022-07-31T18:09:04.920Z,29.04
2022-07-31T18:11:26.611Z,28.89
2022-07-31T18:13:51.721Z,28.81
2022-07-31T18:16:18.662Z,28.84
2022-07-31T18:18:40.140Z,28.64
2022-07-31T18:21:01.951Z,28.60
2022-07-31T18:23:29.299Z,28.27
2022-07-31T18:25:53.651Z,28.35
2022-07-31T18:28:15.095Z,28.17
2022-07-31T18:30:41.071Z,28.01
2022-07-31T18:33:02.650Z,27.87
2022-07-31T18:35:24.139Z,27.73
2022-07-31T18:37:45.658Z,27.60
2022-07-31T18:40:07.947Z,27.56
2022-07-31T18:42:29.536Z,27.54
2022-07-31T18:44:51.368Z,27.56
2022-07-31T18:47:12.899Z,27.44
2022-07-31T18:51:00.227Z,27.36
2022-07-31T18:52:15.868Z,27.41
2022-07-31T18:54:37.865Z,27.25
2022-07-31T18:56:59.882Z,27.15
2022-07-31T18:59:21.528Z,27.10
2022-07-31T19:01:43.050Z,27.07
2022-07-31T19:04:05.790Z,27.09
2022-07-31T19:06:27.372Z,26.92
2022-07-31T19:08:51.887Z,26.83
2022-07-31T19:11:13.435Z,26.71
2022-07-31T19:13:35.091Z,26.57
2022-07-31T19:15:56.575Z,26.50
2022-07-31T19:18:21.777Z,26.51
2022-07-31T19:20:58.893Z,26.37
2022-07-31T19:23:29.524Z,26.31
2022-07-31T19:26:02.356Z,26.24
2022-07-31T19:28:27.319Z,26.11
2022-07-31T19:30:48.975Z,26.02
2022-07-31T19:33:10.439Z,25.91
2022-07-31T19:35:32.084Z,25.77
2022-07-31T19:37:58.746Z,25.69
2022-07-31T19:40:20.256Z,25.58
2022-07-31T19:42:41.707Z,25.57
2022-07-31T19:45:04.020Z,25.43
2022-07-31T19:47:25.503Z,25.33
2022-07-31T19:49:47.326Z,25.23
2022-07-31T19:52:08.825Z,25.17
2022-07-31T19:54:30.286Z,25.13
2022-07-31T19:56:51.756Z,25.06
2022-07-31T19:59:13.288Z,25.00
2022-07-31T20:01:34.854Z,24.89
2022-07-31T20:03:57.719Z,24.78
2022-07-31T20:06:19.334Z,24.73
2022-07-31T20:08:40.818Z,24.61
2022-07-31T20:11:04.428Z,24.52
2022-07-31T20:13:27.876Z,24.44
2022-07-31T20:15:52.016Z,24.39
2022-07-31T20:18:26.913Z,24.31
2022-07-31T20:20:49.703Z,24.27
2022-07-31T20:23:11.152Z,24.11
2022-07-31T20:25:32.762Z,23.98
2022-07-31T20:27:54.269Z,23.88
2022-07-31T20:30:15.910Z,23.88
2022-07-31T20:32:38.126Z,23.82
2022-07-31T20:35:29.090Z,23.64
2022-07-31T20:37:55.567Z,23.59
2022-07-31T20:40:17.057Z,23.53
2022-07-31T20:42:38.776Z,23.46
2022-07-31T20:45:00.277Z,23.33
2022-07-31T20:47:24.637Z,23.33
2022-07-31T20:49:46.323Z,23.16
2022-07-31T20:52:08.187Z,23.10
2022-07-31T20:54:34.173Z,23.04
2022-07-31T20:56:56.492Z,22.98
2022-07-31T20:59:17.994Z,23.02
2022-07-31T21:01:39.503Z,22.95
2022-07-31T21:04:01.770Z,22.94
2022-07-31T21:06:24.790Z,22.94
2022-07-31T21:08:46.800Z,22.79
2022-07-31T21:11:08.585Z,22.68
2022-07-31T21:13:30.559Z,22.65
2022-07-31T21:15:52.718Z,22.64
2022-07-31T21:18:16.194Z,22.63
2022-07-31T21:20:51.007Z,22.66
2022-07-31T21:23:15.231Z,22.68
2022-07-31T21:25:37.291Z,22.57
2022-07-31T21:27:59.099Z,22.45
2022-07-31T21:30:20.683Z,22.46
2022-07-31T21:32:42.226Z,22.55
2022-07-31T21:35:04.809Z,22.42
2022-07-31T21:37:27.601Z,22.29
2022-07-31T21:40:00.860Z,22.30
2022-07-31T21:42:22.688Z,22.34
2022-07-31T21:44:46.278Z,22.29
2022-07-31T21:47:13.878Z,22.30
2022-07-31T21:49:38.145Z,22.36
2022-07-31T21:52:01.177Z,22.41
2022-07-31T21:54:22.658Z,22.33
2022-07-31T21:56:44.149Z,22.23
2022-07-31T21:59:05.609Z,22.19
2022-07-31T22:01:27.107Z,22.19
2022-07-31T22:03:48.602Z,22.18
2022-07-31T22:06:28.666Z,22.15
2022-07-31T22:08:50.183Z,22.19
2022-07-31T22:11:11.820Z,22.19
2022-07-31T22:13:33.414Z,22.07
2022-07-31T22:16:00.159Z,21.97
2022-07-31T22:18:22.688Z,21.98
2022-07-31T22:20:47.794Z,21.94
2022-07-31T22:23:11.064Z,21.78
2022-07-31T22:25:32.810Z,21.71
2022-07-31T22:27:56.008Z,21.55
2022-07-31T22:30:17.971Z,21.55
2022-07-31T22:32:42.824Z,21.54
2022-07-31T22:35:05.475Z,21.60
2022-07-31T22:37:28.396Z,21.46
2022-07-31T22:39:50.801Z,21.46
2022-07-31T22:42:12.401Z,21.36
2022-07-31T22:44:33.940Z,21.51
2022-07-31T22:46:56.397Z,21.36
2022-07-31T22:49:19.055Z,21.38
2022-07-31T22:51:44.838Z,21.28
2022-07-31T22:54:07.974Z,21.26
2022-07-31T22:56:29.432Z,21.24
2022-07-31T22:58:50.886Z,21.23
2022-07-31T23:01:12.392Z,21.13
2022-07-31T23:03:33.900Z,21.20
2022-07-31T23:06:02.626Z,21.15
2022-07-31T23:08:36.870Z,20.99
2022-07-31T23:10:58.329Z,21.02
2022-07-31T23:13:19.838Z,21.06
2022-07-31T23:15:41.288Z,21.02
2022-07-31T23:18:02.814Z,21.05
2022-07-31T23:20:24.266Z,21.05
2022-07-31T23:22:46.441Z,21.04
2022-07-31T23:25:12.853Z,21.14
2022-07-31T23:27:34.707Z,21.24
2022-07-31T23:29:56.253Z,21.22
2022-07-31T23:32:17.765Z,21.24
2022-07-31T23:34:39.523Z,21.36
2022-07-31T23:37:01.885Z,21.27
2022-07-31T23:39:23.325Z,21.25
2022-07-31T23:42:03.896Z,21.28
2022-07-31T23:44:25.897Z,21.25
2022-07-31T23:46:47.319Z,21.30
2022-07-31T23:49:10.954Z,21.33
2022-07-31T23:51:32.467Z,21.37
2022-07-31T23:53:53.972Z,21.54
2022-07-31T23:56:18.488Z,21.49
2022-07-31T23:58:41.266Z,21.49
